Time;durP1;ratioP1;P1;durP2;ratioP2;P2;SDS_P1;SDS_P2;PMS_P1;PMS_P2;Temp;Humidity;BMP_temperature;BMP_pressure;BME280_temperature;BME280_humidity;BME280_pressure;Samples;Min_cycle;Max_cycle;Signal;HPM_P1;HPM_P2
2023/10/09 00:01:26;;;;;;;0.20;0.10;;;;;;;;;;4951389;28;20077;-80
2023/10/09 00:03:55;;;;;;;0.20;0.10;;;;;;;;;;4968482;28;20038;-79
2023/10/09 00:06:37;;;;;;;0.25;0.17;;;;;;;;;;4970440;28;20046;-82
2023/10/09 00:11:45;;;;;;;0.20;0.10;;;;;;;;;;4972565;28;20137;-82
2023/10/09 00:14:11;;;;;;;0.20;0.10;;;;;;;;;;4959124;28;22056;-81
2023/10/09 00:16:47;;;;;;;0.20;0.00;;;;;;;;;;4965860;28;20046;-80
2023/10/09 00:19:20;;;;;;;0.20;0.13;;;;;;;;;;4978245;28;20049;-81
2023/10/09 00:21:47;;;;;;;0.20;0.10;;;;;;;;;;4965978;28;20098;-82
2023/10/09 00:24:13;;;;;;;0.20;0.10;;;;;;;;;;4968598;28;20120;-79
2023/10/09 00:26:44;;;;;;;0.43;0.43;;;;;;;;;;4987064;28;20536;-81
2023/10/09 00:29:21;;;;;;;0.20;0.10;;;;;;;;;;4960282;28;20071;-81
2023/10/09 00:31:54;;;;;;;0.20;0.10;;;;;;;;;;4965294;28;20556;-81
2023/10/09 00:34:21;;;;;;;0.20;0.00;;;;;;;;;;4954706;28;20069;-80
2023/10/09 00:36:51;;;;;;;0.20;0.10;;;;;;;;;;4967213;28;20092;-82
2023/10/09 00:42:02;;;;;;;0.20;0.10;;;;;;;;;;4976386;28;20057;-80
2023/10/09 00:44:38;;;;;;;0.20;0.00;;;;;;;;;;4975331;28;20275;-81
2023/10/09 00:47:20;;;;;;;0.20;0.10;;;;;;;;;;4984721;28;20051;-81
2023/10/09 00:50:03;;;;;;;0.20;0.10;;;;;;;;;;4965135;28;20042;-83
2023/10/09 00:52:39;;;;;;;0.20;0.10;;;;;;;;;;4966955;28;20042;-82
2023/10/09 00:55:20;;;;;;;0.20;0.10;;;;;;;;;;4974139;28;20069;-81
2023/10/09 00:57:59;;;;;;;0.20;0.10;;;;;;;;;;4973232;28;20057;-82
2023/10/09 01:00:49;;;;;;;0.20;0.05;;;;;;;;;;4968427;28;20066;-81
2023/10/09 01:05:51;;;;;;;0.50;0.50;;;;;;;;;;4972831;28;20100;-80
2023/10/09 01:08:25;;;;;;;0.20;0.10;;;;;;;;;;4955102;28;20042;-82
2023/10/09 01:10:56;;;;;;;1.67;0.30;;;;;;;;;;4957363;28;20038;-81
2023/10/09 01:13:38;;;;;;;0.25;0.10;;;;;;;;;;4953833;28;20065;-83
2023/10/09 01:16:04;;;;;;;;;;;;;;;;;;4968623;28;20127;-81
2023/10/09 01:18:36;;;;;;;0.20;0.00;;;;;;;;;;4954981;28;19924;-81
2023/10/09 01:21:02;;;;;;;0.20;0.10;;;;;;;;;;4981843;28;20038;-80
2023/10/09 01:23:31;;;;;;;0.82;0.40;;;;;;;;;;4947308;28;20592;-82
2023/10/09 01:25:57;;;;;;;0.38;0.38;;;;;;;;;;4969909;28;20043;-80
2023/10/09 01:28:26;;;;;;;0.20;0.10;;;;;;;;;;4988783;28;20114;-81
2023/10/09 01:30:52;;;;;;;0.43;0.30;;;;;;;;;;4970659;28;20042;-81
2023/10/09 01:33:26;;;;;;;0.32;0.30;;;;;;;;;;4966996;28;20038;-82
2023/10/09 01:35:58;;;;;;;0.30;0.20;;;;;;;;;;4972280;28;20113;-80
2023/10/09 01:38:58;;;;;;;0.20;0.10;;;;;;;;;;4953225;28;20046;-82
2023/10/09 01:41:19;;;;;;;0.20;0.03;;;;;;;;;;4968243;28;20076;-79
2023/10/09 01:43:46;;;;;;;0.30;0.30;;;;;;;;;;4962197;28;20127;-82
2023/10/09 01:46:12;;;;;;;0.20;0.10;;;;;;;;;;4947567;28;20128;-80
2023/10/09 01:48:46;;;;;;;0.20;0.10;;;;;;;;;;4966778;28;20092;-82
2023/10/09 01:51:20;;;;;;;0.20;0.17;;;;;;;;;;4968480;28;20043;-83
2023/10/09 01:53:54;;;;;;;0.30;0.15;;;;;;;;;;4964603;28;20121;-83
2023/10/09 01:56:20;;;;;;;0.75;0.20;;;;;;;;;;4951788;28;20157;-80
2023/10/09 01:58:47;;;;;;;3.20;0.30;;;;;;;;;;4951598;28;20054;-83
2023/10/09 02:01:14;;;;;;;0.20;0.10;;;;;;;;;;4952383;28;20486;-81
2023/10/09 02:03:42;;;;;;;0.20;0.10;;;;;;;;;;4969550;28;20479;-81
2023/10/09 02:09:06;;;;;;;0.20;0.20;;;;;;;;;;4957233;28;20169;-81
2023/10/09 02:11:36;;;;;;;0.98;0.40;;;;;;;;;;4947005;28;20129;-82
2023/10/09 02:14:05;;;;;;;0.20;0.10;;;;;;;;;;4967903;28;20044;-81
2023/10/09 02:16:41;;;;;;;0.45;0.40;;;;;;;;;;4954254;28;20038;-83
2023/10/09 02:19:30;;;;;;;0.47;0.43;;;;;;;;;;4948977;28;20045;-82
2023/10/09 02:22:01;;;;;;;0.20;0.00;;;;;;;;;;4953299;28;20553;-82
2023/10/09 02:24:28;;;;;;;0.20;0.00;;;;;;;;;;4962571;28;20050;-82
2023/10/09 02:29:23;;;;;;;1.65;0.80;;;;;;;;;;4968491;28;20562;-81
2023/10/09 02:32:00;;;;;;;0.20;0.10;;;;;;;;;;4945697;28;20046;-83
2023/10/09 02:34:28;;;;;;;0.85;0.20;;;;;;;;;;4967726;28;20111;-81
2023/10/09 02:37:05;;;;;;;0.20;0.10;;;;;;;;;;4950251;28;20042;-81
2023/10/09 02:39:39;;;;;;;0.20;0.00;;;;;;;;;;4964281;28;20050;-82
2023/10/09 02:44:46;;;;;;;0.43;0.38;;;;;;;;;;4972579;28;20692;-83
2023/10/09 02:47:20;;;;;;;0.25;0.25;;;;;;;;;;4955291;28;20499;-81
2023/10/09 02:49:48;;;;;;;0.57;0.32;;;;;;;;;;4972552;28;20042;-82
2023/10/09 02:52:18;;;;;;;0.25;0.25;;;;;;;;;;4968791;28;20499;-83
2023/10/09 02:54:48;;;;;;;0.50;0.50;;;;;;;;;;4972141;28;20046;-83
2023/10/09 02:57:23;;;;;;;0.20;0.20;;;;;;;;;;4967216;28;20091;-82
2023/10/09 02:59:51;;;;;;;0.20;0.13;;;;;;;;;;4964194;28;20102;-80
2023/10/09 03:02:18;;;;;;;0.30;0.30;;;;;;;;;;4966419;28;20041;-84
2023/10/09 03:04:44;;;;;;;0.45;0.38;;;;;;;;;;4972181;28;20038;-82
2023/10/09 03:07:13;;;;;;;0.38;0.30;;;;;;;;;;4953997;28;20093;-84
2023/10/09 03:09:40;;;;;;;0.30;0.28;;;;;;;;;;4960054;28;20043;-82
2023/10/09 03:12:09;;;;;;;0.20;0.10;;;;;;;;;;4971586;28;20398;-82
2023/10/09 03:14:38;;;;;;;0.38;0.38;;;;;;;;;;4974114;28;20038;-81
2023/10/09 03:17:04;;;;;;;0.20;0.10;;;;;;;;;;4978899;28;20045;-81
2023/10/09 03:19:37;;;;;;;0.20;0.10;;;;;;;;;;4958615;28;20477;-82
2023/10/09 03:22:03;;;;;;;1.38;0.63;;;;;;;;;;4972375;28;20046;-82
2023/10/09 03:24:30;;;;;;;0.20;0.10;;;;;;;;;;4971836;28;20062;-81
2023/10/09 03:26:57;;;;;;;0.30;0.25;;;;;;;;;;4958341;28;20832;-82
2023/10/09 03:29:23;;;;;;;0.30;0.30;;;;;;;;;;4974232;28;20531;-82
2023/10/09 03:31:53;;;;;;;0.20;0.10;;;;;;;;;;4975587;28;20034;-82
2023/10/09 03:34:19;;;;;;;0.20;0.00;;;;;;;;;;4970880;28;20093;-82
2023/10/09 03:36:51;;;;;;;0.20;0.10;;;;;;;;;;4977019;28;20042;-81
2023/10/09 03:42:05;;;;;;;0.20;0.10;;;;;;;;;;4976043;28;20129;-83
2023/10/09 03:44:39;;;;;;;0.20;0.10;;;;;;;;;;4961811;28;20034;-83
2023/10/09 03:47:05;;;;;;;0.20;0.10;;;;;;;;;;4969363;28;20073;-82
2023/10/09 03:49:31;;;;;;;0.40;0.40;;;;;;;;;;4952148;28;20042;-83
2023/10/09 03:51:59;;;;;;;0.20;0.00;;;;;;;;;;4970794;28;20049;-84
2023/10/09 03:54:29;;;;;;;0.32;0.28;;;;;;;;;;4968766;28;20402;-80
2023/10/09 03:56:58;;;;;;;0.32;0.32;;;;;;;;;;4972917;28;20057;-82
2023/10/09 03:59:30;;;;;;;1.05;0.75;;;;;;;;;;4952817;28;20166;-81
2023/10/09 04:01:58;;;;;;;0.25;0.22;;;;;;;;;;4974399;28;20466;-83
2023/10/09 04:04:24;;;;;;;0.45;0.40;;;;;;;;;;4962328;28;20042;-83
2023/10/09 04:06:53;;;;;;;0.20;0.20;;;;;;;;;;4969493;28;20042;-81
2023/10/09 04:11:57;;;;;;;0.30;0.20;;;;;;;;;;4966065;28;20433;-81
2023/10/09 04:15:11;;;;;;;0.40;0.40;;;;;;;;;;4955639;28;20087;-81
2023/10/09 04:17:32;;;;;;;1.27;0.70;;;;;;;;;;4967612;28;20965;-83
2023/10/09 04:22:49;;;;;;;0.45;0.43;;;;;;;;;;4971613;28;20050;-82
2023/10/09 04:25:25;;;;;;;0.20;0.20;;;;;;;;;;4950124;28;20046;-83
2023/10/09 04:27:53;;;;;;;0.20;0.10;;;;;;;;;;4955143;28;20134;-83
2023/10/09 04:30:19;;;;;;;0.30;0.20;;;;;;;;;;4951879;28;20034;-83
2023/10/09 04:32:46;;;;;;;0.20;0.03;;;;;;;;;;4956227;28;20045;-84
2023/10/09 04:35:26;;;;;;;0.50;0.50;;;;;;;;;;4974831;28;20065;-83
2023/10/09 04:38:00;;;;;;;0.22;0.13;;;;;;;;;;4952226;28;20046;-84
2023/10/09 04:41:22;;;;;;;0.20;0.10;;;;;;;;;;4973988;28;20345;-84
2023/10/09 04:43:20;;;;;;;0.45;0.45;;;;;;;;;;4963118;28;20049;-83
2023/10/09 04:46:31;;;;;;;0.30;0.30;;;;;;;;;;4976871;28;20046;-83
2023/10/09 04:48:45;;;;;;;0.20;0.10;;;;;;;;;;4965051;28;20115;-83
2023/10/09 04:51:21;;;;;;;0.20;0.10;;;;;;;;;;4978386;28;20049;-83
2023/10/09 04:54:14;;;;;;;2.72;0.35;;;;;;;;;;4966225;28;20046;-84
2023/10/09 04:56:52;;;;;;;0.68;0.60;;;;;;;;;;4979997;28;20399;-83
2023/10/09 04:59:46;;;;;;;0.47;0.47;;;;;;;;;;4960012;28;20493;-84
2023/10/09 05:02:19;;;;;;;0.20;0.10;;;;;;;;;;5006106;23;20510;-81
2023/10/09 05:04:47;;;;;;;;;;;;;;;;;;5024384;28;20434;-82
2023/10/09 05:07:54;;;;;;;0.20;0.10;;;;;;;;;;5022272;28;20468;-81
2023/10/09 05:10:16;;;;;;;0.43;0.32;;;;;;;;;;5021525;28;20045;-82
2023/10/09 05:12:56;;;;;;;0.98;0.93;;;;;;;;;;5022807;28;20115;-81
2023/10/09 05:15:28;;;;;;;1.75;0.40;;;;;;;;;;5025670;28;20600;-82
2023/10/09 05:17:56;;;;;;;0.82;0.68;;;;;;;;;;5024053;28;20041;-82
2023/10/09 05:22:58;;;;;;;1.42;0.82;;;;;;;;;;5022467;28;20047;-82
2023/10/09 05:28:48;;;;;;;0.20;0.10;;;;;;;;;;5001651;28;20041;-81
2023/10/09 05:31:44;;;;;;;0.20;0.20;;;;;;;;;;5021136;28;20044;-82
2023/10/09 05:34:01;;;;;;;0.38;0.35;;;;;;;;;;5022264;28;20041;-82
2023/10/09 05:38:59;;;;;;;0.20;0.10;;;;;;;;;;5025468;28;20057;-82
2023/10/09 05:41:45;;;;;;;0.20;0.10;;;;;;;;;;5009335;28;20178;-83
2023/10/09 05:49:46;;;;;;;0.20;0.15;;;;;;;;;;5022901;28;20045;-82
2023/10/09 05:55:27;;;;;;;0.28;0.28;;;;;;;;;;5036975;28;20056;-82
2023/10/09 06:08:47;;;;;;;0.60;0.45;;;;;;;;;;5040369;28;20041;-82
2023/10/09 06:14:49;;;;;;;0.50;0.30;;;;;;;;;;4930754;29;20043;-81
2023/10/09 06:17:23;;;;;;;0.80;0.75;;;;;;;;;;4929097;28;20047;-81
2023/10/09 06:19:49;;;;;;;0.40;0.30;;;;;;;;;;5003912;28;20053;-81
2023/10/09 06:25:09;;;;;;;0.20;0.13;;;;;;;;;;5046645;28;20520;-82
2023/10/09 06:35:39;;;;;;;0.82;0.57;;;;;;;;;;5004373;28;20056;-82
2023/10/09 06:38:22;;;;;;;0.45;0.40;;;;;;;;;;5011525;28;20041;-81
2023/10/09 06:43:42;;;;;;;0.57;0.20;;;;;;;;;;5029291;28;20082;-80
2023/10/09 06:48:55;;;;;;;0.68;0.43;;;;;;;;;;5040697;28;20509;-82
2023/10/09 07:01:47;;;;;;;0.20;0.10;;;;;;;;;;5015886;28;20049;-81
2023/10/09 07:04:19;;;;;;;0.20;0.10;;;;;;;;;;5013689;28;20497;-81
2023/10/09 07:22:23;;;;;;;0.57;0.57;;;;;;;;;;5030335;28;20041;-80
2023/10/09 07:27:44;;;;;;;0.20;0.20;;;;;;;;;;5030981;28;20072;-81
2023/10/09 07:33:16;;;;;;;0.20;0.10;;;;;;;;;;5029737;28;20046;-82
2023/10/09 07:35:57;;;;;;;0.20;0.10;;;;;;;;;;5030060;28;20045;-81
2023/10/09 07:38:28;;;;;;;0.20;0.20;;;;;;;;;;5013813;28;20557;-83
2023/10/09 07:43:45;;;;;;;0.20;0.10;;;;;;;;;;5024210;28;20061;-83
2023/10/09 07:46:32;;;;;;;0.20;0.15;;;;;;;;;;5021668;28;20037;-81
2023/10/09 07:49:00;;;;;;;0.30;0.20;;;;;;;;;;5027509;28;20121;-79
2023/10/09 07:51:32;;;;;;;0.20;0.10;;;;;;;;;;5014271;28;20034;-82
2023/10/09 07:54:08;;;;;;;0.20;0.13;;;;;;;;;;5012361;28;20444;-82
2023/10/09 07:56:41;;;;;;;0.57;0.57;;;;;;;;;;5012221;28;20051;-84
2023/10/09 07:59:10;;;;;;;0.30;0.15;;;;;;;;;;5028889;28;20072;-84
2023/10/09 08:01:54;;;;;;;0.35;0.35;;;;;;;;;;5011575;28;20041;-81
2023/10/09 08:04:37;;;;;;;0.20;0.10;;;;;;;;;;5036248;28;20057;-83
2023/10/09 08:07:07;;;;;;;0.20;0.10;;;;;;;;;;5018593;28;20056;-81
2023/10/09 08:15:51;;;;;;;0.30;0.28;;;;;;;;;;5025684;28;20049;-84
2023/10/09 08:18:03;;;;;;;0.20;0.10;;;;;;;;;;5023889;28;20159;-83
2023/10/09 08:20:50;;;;;;;0.20;0.20;;;;;;;;;;5030279;28;20045;-83
2023/10/09 08:23:33;;;;;;;0.20;0.10;;;;;;;;;;5018000;28;20056;-83
2023/10/09 08:26:14;;;;;;;0.65;0.40;;;;;;;;;;5029037;28;20076;-82
2023/10/09 08:28:45;;;;;;;0.20;0.05;;;;;;;;;;5023006;28;20046;-84
2023/10/09 08:34:00;;;;;;;0.80;0.40;;;;;;;;;;5025165;28;20038;-83
2023/10/09 08:36:36;;;;;;;0.22;0.08;;;;;;;;;;5026373;28;20055;-82
2023/10/09 08:39:23;;;;;;;0.20;0.10;;;;;;;;;;5024009;28;20533;-83
2023/10/09 08:41:49;;;;;;;0.20;0.00;;;;;;;;;;5012859;28;20091;-82
2023/10/09 08:44:15;;;;;;;0.20;0.00;;;;;;;;;;5013042;28;20127;-82
2023/10/09 08:46:42;;;;;;;0.20;0.10;;;;;;;;;;5012931;28;20390;-82
2023/10/09 08:49:10;;;;;;;0.20;0.10;;;;;;;;;;5013658;28;20072;-82
2023/10/09 08:51:37;;;;;;;0.63;0.40;;;;;;;;;;5027277;28;20045;-82
2023/10/09 08:54:04;;;;;;;0.20;0.10;;;;;;;;;;5013996;28;20045;-83
2023/10/09 08:56:30;;;;;;;0.20;0.10;;;;;;;;;;5010398;28;20045;-80
2023/10/09 08:58:57;;;;;;;0.20;0.00;;;;;;;;;;5026312;28;20041;-80
2023/10/09 09:01:24;;;;;;;0.20;0.10;;;;;;;;;;5009569;28;20038;-80
2023/10/09 09:03:50;;;;;;;0.20;0.00;;;;;;;;;;5026052;28;20038;-79
2023/10/09 09:06:19;;;;;;;0.20;0.00;;;;;;;;;;5024895;28;20531;-82
2023/10/09 09:08:45;;;;;;;0.75;0.70;;;;;;;;;;5026072;28;20384;-82
2023/10/09 09:11:12;;;;;;;0.20;0.10;;;;;;;;;;5028245;28;20033;-82
2023/10/09 09:13:42;;;;;;;0.20;0.13;;;;;;;;;;5026986;28;20631;-81
2023/10/09 09:16:21;;;;;;;0.20;0.20;;;;;;;;;;5009534;28;20505;-81
2023/10/09 09:18:56;;;;;;;0.22;0.13;;;;;;;;;;5028031;28;20128;-79
2023/10/09 09:21:22;;;;;;;0.20;0.20;;;;;;;;;;5020624;28;20099;-80
2023/10/09 09:23:57;;;;;;;0.20;0.00;;;;;;;;;;5040334;28;20044;-79
2023/10/09 09:26:58;;;;;;;0.20;0.00;;;;;;;;;;5040344;28;20045;-79
2023/10/09 09:29:25;;;;;;;0.20;0.00;;;;;;;;;;5011633;28;20033;-79
2023/10/09 09:31:55;;;;;;;0.20;0.08;;;;;;;;;;5030744;28;20037;-80
2023/10/09 09:34:25;;;;;;;0.20;0.20;;;;;;;;;;5048719;28;20133;-81
2023/10/09 09:36:56;;;;;;;0.20;0.05;;;;;;;;;;5030692;28;20506;-81
2023/10/09 09:39:27;;;;;;;0.20;0.10;;;;;;;;;;5023483;28;20049;-81
2023/10/09 09:42:07;;;;;;;0.80;0.55;;;;;;;;;;5025459;28;20048;-81
2023/10/09 09:44:43;;;;;;;0.30;0.20;;;;;;;;;;5013319;28;20053;-81
2023/10/09 09:47:12;;;;;;;0.75;0.30;;;;;;;;;;5036698;28;20243;-83
2023/10/09 09:49:39;;;;;;;0.55;0.52;;;;;;;;;;5020694;28;20226;-80
2023/10/09 09:52:09;;;;;;;0.30;0.20;;;;;;;;;;5036246;28;20049;-81
2023/10/09 09:54:38;;;;;;;0.20;0.20;;;;;;;;;;5037675;28;20075;-82
2023/10/09 09:57:12;;;;;;;0.20;0.20;;;;;;;;;;5033297;28;20041;-81
2023/10/09 09:59:50;;;;;;;0.20;0.10;;;;;;;;;;5010425;28;20504;-81
2023/10/09 10:02:20;;;;;;;0.88;0.65;;;;;;;;;;5028183;28;20037;-81
2023/10/09 10:04:50;;;;;;;0.20;0.03;;;;;;;;;;5027680;28;20041;-82
2023/10/09 10:07:17;;;;;;;0.20;0.10;;;;;;;;;;5029998;28;20037;-82
2023/10/09 10:09:44;;;;;;;1.75;1.38;;;;;;;;;;5030127;28;20044;-82
2023/10/09 10:12:11;;;;;;;0.20;0.00;;;;;;;;;;5009963;28;20372;-82
2023/10/09 10:14:52;;;;;;;0.20;0.10;;;;;;;;;;5029358;28;20107;-82
2023/10/09 10:17:21;;;;;;;0.60;0.10;;;;;;;;;;5007748;28;20065;-81
2023/10/09 10:22:47;;;;;;;2.08;1.27;;;;;;;;;;5040369;28;20079;-82
2023/10/09 10:25:41;;;;;;;0.20;0.20;;;;;;;;;;5008342;28;20064;-84
2023/10/09 10:28:42;;;;;;;0.25;0.20;;;;;;;;;;5027305;28;20119;-83
2023/10/09 10:31:09;;;;;;;0.20;0.08;;;;;;;;;;5010022;28;20209;-82
2023/10/09 10:34:06;;;;;;;0.20;0.10;;;;;;;;;;5007918;28;20120;-82
2023/10/09 10:36:34;;;;;;;0.20;0.10;;;;;;;;;;5028917;28;20089;-82
2023/10/09 10:39:04;;;;;;;0.68;0.65;;;;;;;;;;5007763;28;20044;-81
2023/10/09 10:41:36;;;;;;;0.20;0.20;;;;;;;;;;5023322;28;20442;-82
2023/10/09 10:44:33;;;;;;;0.20;0.07;;;;;;;;;;5011872;28;20064;-83
2023/10/09 10:46:54;;;;;;;0.20;0.10;;;;;;;;;;5025937;28;20045;-80
2023/10/09 10:49:25;;;;;;;0.20;0.10;;;;;;;;;;5028331;28;20061;-80
2023/10/09 10:52:01;;;;;;;0.20;0.00;;;;;;;;;;5011883;28;20033;-82
2023/10/09 10:57:00;;;;;;;;;;;;;;;;;;5037421;28;20144;-80
2023/10/09 10:59:36;;;;;;;0.20;0.10;;;;;;;;;;5023461;28;20391;-81
2023/10/09 11:04:43;;;;;;;0.28;0.28;;;;;;;;;;4985710;28;20042;-79
2023/10/09 11:07:24;;;;;;;0.20;0.10;;;;;;;;;;4986346;28;20038;-80
2023/10/09 11:10:08;;;;;;;0.20;0.03;;;;;;;;;;4987112;28;20461;-79
2023/10/09 11:13:30;;;;;;;0.20;0.10;;;;;;;;;;4970560;28;20486;-80
2023/10/09 11:15:46;;;;;;;0.40;0.40;;;;;;;;;;4987885;28;20145;-80
2023/10/09 11:18:20;;;;;;;0.32;0.20;;;;;;;;;;4985775;28;20192;-79
2023/10/09 11:28:49;;;;;;;0.43;0.20;;;;;;;;;;4982420;28;20042;-80
2023/10/09 11:31:16;;;;;;;0.20;0.00;;;;;;;;;;4986105;28;20125;-81
2023/10/09 11:33:52;;;;;;;0.50;0.15;;;;;;;;;;4988555;28;20044;-82
2023/10/09 11:36:32;;;;;;;0.70;0.68;;;;;;;;;;4987151;28;20174;-81
2023/10/09 11:39:20;;;;;;;0.43;0.40;;;;;;;;;;4985536;28;20501;-82
2023/10/09 11:41:49;;;;;;;0.20;0.00;;;;;;;;;;4969580;28;20319;-82
2023/10/09 11:44:23;;;;;;;0.20;0.17;;;;;;;;;;4970072;28;20109;-82
2023/10/09 11:47:22;;;;;;;0.20;0.13;;;;;;;;;;4985316;28;20046;-80
2023/10/09 11:54:58;;;;;;;0.20;0.10;;;;;;;;;;4988760;28;20149;-80
2023/10/09 11:57:30;;;;;;;0.28;0.28;;;;;;;;;;4988192;28;20126;-81
2023/10/09 11:59:57;;;;;;;0.20;0.10;;;;;;;;;;4990975;28;20038;-83
2023/10/09 12:02:23;;;;;;;0.20;0.10;;;;;;;;;;4991863;28;20038;-82
2023/10/09 12:04:49;;;;;;;0.35;0.35;;;;;;;;;;4991035;28;20576;-82
2023/10/09 12:07:16;;;;;;;0.20;0.10;;;;;;;;;;4989608;28;20046;-82
2023/10/09 12:09:42;;;;;;;0.20;0.10;;;;;;;;;;4985441;28;20978;-81
2023/10/09 12:12:11;;;;;;;0.20;0.10;;;;;;;;;;4989382;28;20038;-82
2023/10/09 12:14:37;;;;;;;0.20;0.00;;;;;;;;;;4985741;28;20050;-81
2023/10/09 12:17:07;;;;;;;1.45;1.35;;;;;;;;;;4986230;28;20038;-81
2023/10/09 12:19:37;;;;;;;0.20;0.10;;;;;;;;;;4973531;28;20108;-82
2023/10/09 12:22:05;;;;;;;0.20;0.10;;;;;;;;;;4992559;28;20092;-82
2023/10/09 12:24:33;;;;;;;0.20;0.10;;;;;;;;;;4973943;28;20081;-81
2023/10/09 12:26:59;;;;;;;0.75;0.75;;;;;;;;;;4989613;28;20096;-85
2023/10/09 12:29:29;;;;;;;0.20;0.00;;;;;;;;;;4990724;28;20450;-82
2023/10/09 12:31:59;;;;;;;0.20;0.10;;;;;;;;;;4986367;28;20042;-81
2023/10/09 12:34:28;;;;;;;0.25;0.15;;;;;;;;;;4974559;28;20054;-83
2023/10/09 12:37:04;;;;;;;0.20;0.08;;;;;;;;;;4988286;28;20386;-81
2023/10/09 12:39:40;;;;;;;0.20;0.10;;;;;;;;;;4992832;28;20057;-84
2023/10/09 12:42:06;;;;;;;0.20;0.10;;;;;;;;;;4974541;28;20517;-83
2023/10/09 12:44:39;;;;;;;0.22;0.05;;;;;;;;;;5005552;28;20046;-81
2023/10/09 12:47:11;;;;;;;0.20;0.10;;;;;;;;;;4989925;28;20046;-83
2023/10/09 12:49:40;;;;;;;0.20;0.10;;;;;;;;;;4975714;28;20106;-83
2023/10/09 12:52:15;;;;;;;0.20;0.10;;;;;;;;;;4975032;28;20042;-83
2023/10/09 12:54:41;;;;;;;0.50;0.50;;;;;;;;;;4974200;28;20045;-84
2023/10/09 12:57:13;;;;;;;0.20;0.10;;;;;;;;;;4975309;28;20727;-84
2023/10/09 12:59:44;;;;;;;0.20;0.00;;;;;;;;;;4990541;28;20419;-82
2023/10/09 13:02:11;;;;;;;0.20;0.00;;;;;;;;;;4989084;28;20073;-82
2023/10/09 13:04:41;;;;;;;0.40;0.20;;;;;;;;;;4976044;28;20049;-82
2023/10/09 13:07:07;;;;;;;0.20;0.10;;;;;;;;;;4990205;28;20423;-82
2023/10/09 13:09:43;;;;;;;0.20;0.10;;;;;;;;;;4976863;28;21331;-83
2023/10/09 13:12:17;;;;;;;0.20;0.00;;;;;;;;;;4994019;28;20671;-83
2023/10/09 13:14:45;;;;;;;0.20;0.00;;;;;;;;;;4992929;28;20042;-82
2023/10/09 13:17:11;;;;;;;0.20;0.10;;;;;;;;;;4987208;28;20100;-84
2023/10/09 13:19:37;;;;;;;0.20;0.10;;;;;;;;;;4970997;28;20046;-84
2023/10/09 13:22:03;;;;;;;0.20;0.10;;;;;;;;;;4970336;28;20117;-83
2023/10/09 13:24:30;;;;;;;0.28;0.10;;;;;;;;;;4984979;28;20104;-84
2023/10/09 13:27:01;;;;;;;0.20;0.10;;;;;;;;;;4975632;28;20462;-81
2023/10/09 13:29:28;;;;;;;0.20;0.10;;;;;;;;;;4972717;28;20042;-81
2023/10/09 13:31:58;;;;;;;0.20;0.10;;;;;;;;;;4990266;28;20049;-82
2023/10/09 13:34:27;;;;;;;0.20;0.10;;;;;;;;;;4991637;28;20085;-81
2023/10/09 13:36:54;;;;;;;0.50;0.30;;;;;;;;;;4974765;28;20053;-79
2023/10/09 13:39:24;;;;;;;0.20;0.00;;;;;;;;;;4986294;28;20046;-81
2023/10/09 13:42:11;;;;;;;0.20;0.10;;;;;;;;;;4974662;28;20127;-81
2023/10/09 13:45:26;;;;;;;0.20;0.00;;;;;;;;;;4973522;28;20050;-84
2023/10/09 13:48:37;;;;;;;0.20;0.05;;;;;;;;;;4963348;28;20050;-83
2023/10/09 13:51:17;;;;;;;;;;;;;;;;;;4968292;28;20077;-82
2023/10/09 13:53:47;;;;;;;0.20;0.13;;;;;;;;;;4990701;28;19917;-83
2023/10/09 13:56:27;;;;;;;0.20;0.00;;;;;;;;;;4990557;28;20057;-82
2023/10/09 13:58:58;;;;;;;0.30;0.22;;;;;;;;;;4984229;28;20050;-81
2023/10/09 14:01:32;;;;;;;0.20;0.03;;;;;;;;;;5002750;28;20118;-82
2023/10/09 14:04:07;;;;;;;0.20;0.00;;;;;;;;;;4972061;28;20105;-83
2023/10/09 14:06:56;;;;;;;0.20;0.00;;;;;;;;;;4983543;28;20046;-83
2023/10/09 14:09:45;;;;;;;0.20;0.00;;;;;;;;;;4940527;28;20147;-83
2023/10/09 14:12:19;;;;;;;0.20;0.00;;;;;;;;;;4911814;28;20138;-84
2023/10/09 14:14:59;;;;;;;0.20;0.10;;;;;;;;;;4983102;28;20042;-83
2023/10/09 14:17:30;;;;;;;0.20;0.00;;;;;;;;;;4968233;28;20154;-82
2023/10/09 14:22:42;;;;;;;0.45;0.10;;;;;;;;;;4982478;28;20054;-82
2023/10/09 14:25:15;;;;;;;0.20;0.03;;;;;;;;;;4986594;28;20047;-85
2023/10/09 14:27:48;;;;;;;0.20;0.00;;;;;;;;;;4983793;28;20045;-85
2023/10/09 14:30:22;;;;;;;0.32;0.10;;;;;;;;;;4966310;28;20129;-87
2023/10/09 14:32:55;;;;;;;0.20;0.00;;;;;;;;;;4981080;28;20537;-86
2023/10/09 14:35:26;;;;;;;0.20;0.10;;;;;;;;;;4968349;28;20038;-85
2023/10/09 14:38:12;;;;;;;0.20;0.10;;;;;;;;;;4969442;28;20083;-89
2023/10/09 14:40:42;;;;;;;0.20;0.10;;;;;;;;;;4981915;28;20057;-87
2023/10/09 14:43:28;;;;;;;;;;;;;;;;;;;;;
2023/10/09 14:46:10;;;;;;;0.20;0.05;;;;;;;;;;4972338;28;20054;-83
2023/10/09 14:48:52;;;;;;;0.20;0.00;;;;;;;;;;4967933;28;20499;-84
2023/10/09 14:51:35;;;;;;;0.20;0.00;;;;;;;;;;4982183;28;20070;-83
2023/10/09 14:54:17;;;;;;;0.20;0.00;;;;;;;;;;4983153;28;20574;-83
2023/10/09 14:56:45;;;;;;;0.20;0.10;;;;;;;;;;4971322;28;20050;-84
2023/10/09 14:59:11;;;;;;;0.20;0.00;;;;;;;;;;4981912;28;20558;-83
2023/10/09 15:01:38;;;;;;;0.20;0.10;;;;;;;;;;4975692;28;20528;-82
2023/10/09 15:04:04;;;;;;;0.20;0.00;;;;;;;;;;4965203;28;20426;-81
2023/10/09 15:06:51;;;;;;;0.20;0.10;;;;;;;;;;4967872;28;20245;-84
2023/10/09 15:09:23;;;;;;;0.20;0.10;;;;;;;;;;4981356;28;20069;-86
2023/10/09 15:11:58;;;;;;;0.20;0.10;;;;;;;;;;4963808;28;20255;-83
2023/10/09 15:14:26;;;;;;;0.20;0.00;;;;;;;;;;4978448;28;20042;-85
2023/10/09 15:16:59;;;;;;;0.20;0.10;;;;;;;;;;4968567;28;20049;-83
2023/10/09 15:22:39;;;;;;;0.20;0.00;;;;;;;;;;4954868;28;20057;-83
2023/10/09 15:25:06;;;;;;;0.20;0.08;;;;;;;;;;4970364;28;20197;-83
2023/10/09 15:27:38;;;;;;;0.20;0.00;;;;;;;;;;4984305;28;20039;-84
2023/10/09 15:30:16;;;;;;;0.20;0.05;;;;;;;;;;4984311;28;20049;-83
2023/10/09 15:32:52;;;;;;;0.20;0.00;;;;;;;;;;4980089;28;20054;-86
2023/10/09 15:35:18;;;;;;;0.20;0.10;;;;;;;;;;4983842;28;20121;-84
2023/10/09 15:37:45;;;;;;;0.20;0.00;;;;;;;;;;4971011;28;20045;-82
2023/10/09 15:40:18;;;;;;;0.20;0.10;;;;;;;;;;4985360;28;20044;-82
2023/10/09 15:42:55;;;;;;;0.20;0.10;;;;;;;;;;4968188;28;20041;-84
2023/10/09 15:45:22;;;;;;;0.20;0.10;;;;;;;;;;4981236;28;20120;-82
2023/10/09 15:47:51;;;;;;;0.20;0.10;;;;;;;;;;4970061;28;20054;-83
2023/10/09 15:50:19;;;;;;;0.20;0.00;;;;;;;;;;4999598;28;20454;-83
2023/10/09 15:52:47;;;;;;;0.20;0.00;;;;;;;;;;4966545;28;20039;-84
2023/10/09 15:55:20;;;;;;;0.20;0.00;;;;;;;;;;4984857;28;20729;-86
2023/10/09 15:57:52;;;;;;;0.20;0.10;;;;;;;;;;4990360;28;20049;-85
2023/10/09 16:00:21;;;;;;;0.20;0.10;;;;;;;;;;5001373;28;20565;-84
2023/10/09 16:02:56;;;;;;;0.20;0.00;;;;;;;;;;4963764;28;20042;-84
2023/10/09 16:05:26;;;;;;;0.20;0.03;;;;;;;;;;4964233;28;20499;-83
2023/10/09 16:07:55;;;;;;;0.20;0.10;;;;;;;;;;4968596;28;20064;-83
2023/10/09 16:10:22;;;;;;;0.20;0.10;;;;;;;;;;4971425;28;20088;-82
2023/10/09 16:12:51;;;;;;;0.20;0.00;;;;;;;;;;4982319;28;20034;-82
2023/10/09 16:15:20;;;;;;;0.20;0.00;;;;;;;;;;4996892;28;20057;-83
2023/10/09 16:17:58;;;;;;;0.20;0.00;;;;;;;;;;4968573;28;20077;-84
2023/10/09 16:20:26;;;;;;;0.20;0.00;;;;;;;;;;4977522;28;21275;-84
2023/10/09 16:22:52;;;;;;;0.20;0.00;;;;;;;;;;4965915;28;20034;-83
2023/10/09 16:25:23;;;;;;;0.20;0.20;;;;;;;;;;4984817;28;20042;-84
2023/10/09 16:27:50;;;;;;;0.20;0.05;;;;;;;;;;4984514;28;20538;-84
2023/10/09 16:30:20;;;;;;;0.20;0.10;;;;;;;;;;4982709;28;20042;-83
2023/10/09 16:32:47;;;;;;;0.20;0.00;;;;;;;;;;4970319;28;20049;-82
2023/10/09 16:35:13;;;;;;;0.20;0.00;;;;;;;;;;4967286;28;20096;-83
2023/10/09 16:37:40;;;;;;;0.25;0.20;;;;;;;;;;4982048;28;20038;-83
2023/10/09 16:40:11;;;;;;;0.20;0.10;;;;;;;;;;4969323;28;20259;-84
2023/10/09 16:42:42;;;;;;;0.20;0.00;;;;;;;;;;4968185;28;20034;-83
2023/10/09 16:45:12;;;;;;;0.20;0.00;;;;;;;;;;4970111;28;20035;-82
2023/10/09 16:47:38;;;;;;;0.30;0.10;;;;;;;;;;4984249;28;20038;-82
2023/10/09 16:50:11;;;;;;;0.20;0.00;;;;;;;;;;4986276;28;20435;-82
2023/10/09 16:52:38;;;;;;;0.20;0.00;;;;;;;;;;4963386;28;20030;-83
2023/10/09 16:55:08;;;;;;;0.20;0.10;;;;;;;;;;4984055;28;20495;-84
2023/10/09 16:57:35;;;;;;;0.20;0.10;;;;;;;;;;4982279;28;20046;-83
2023/10/09 17:00:02;;;;;;;0.20;0.00;;;;;;;;;;4986285;28;20054;-82
2023/10/09 17:02:30;;;;;;;0.20;0.10;;;;;;;;;;4982031;28;20045;-83
2023/10/09 17:04:56;;;;;;;0.20;0.10;;;;;;;;;;5010426;23;20054;-83
2023/10/09 17:07:25;;;;;;;0.20;0.10;;;;;;;;;;5020791;28;20042;-82
2023/10/09 17:09:56;;;;;;;0.20;0.10;;;;;;;;;;5022491;28;20046;-85
2023/10/09 17:12:52;;;;;;;0.20;0.10;;;;;;;;;;5002830;28;20053;-82
2023/10/09 17:15:34;;;;;;;0.20;0.10;;;;;;;;;;4992351;28;20057;-85
2023/10/09 17:18:00;;;;;;;0.20;0.00;;;;;;;;;;5001090;28;20407;-83
2023/10/09 17:20:29;;;;;;;0.20;0.10;;;;;;;;;;4994350;28;20074;-81
2023/10/09 17:23:11;;;;;;;0.20;0.00;;;;;;;;;;4967554;28;20034;-82
2023/10/09 17:25:44;;;;;;;0.20;0.10;;;;;;;;;;5000169;28;20061;-83
2023/10/09 17:28:10;;;;;;;0.20;0.00;;;;;;;;;;4970085;28;20042;-82
2023/10/09 17:30:36;;;;;;;0.20;0.10;;;;;;;;;;4983220;28;20049;-82
2023/10/09 17:33:03;;;;;;;0.20;0.00;;;;;;;;;;4982867;28;20042;-83
2023/10/09 17:35:31;;;;;;;0.20;0.10;;;;;;;;;;4998104;28;20049;-83
2023/10/09 17:37:57;;;;;;;0.20;0.10;;;;;;;;;;4987497;28;20089;-84
2023/10/09 17:40:25;;;;;;;0.20;0.00;;;;;;;;;;4978727;28;20047;-82